Time;durP1;ratioP1;P1;durP2;ratioP2;P2;SDS_P1;SDS_P2;PMS_P1;PMS_P2;Temp;Humidity;BMP_temperature;BMP_pressure;BME280_temperature;BME280_humidity;BME280_pressure;Samples;Min_cycle;Max_cycle;Signal;HPM_P1;HPM_P2
2022/05/24 00:00:06;;;;;;;20.13;13.95;;;13.70;99.90;;;;;;5143926;27;20815;-57
2022/05/24 00:02:32;;;;;;;23.17;14.10;;;13.80;99.90;;;;;;5141352;27;21461;-58
2022/05/24 00:04:58;;;;;;;20.17;12.93;;;13.70;99.90;;;;;;5146313;27;20079;-57
2022/05/24 00:07:24;;;;;;;17.85;12.85;;;13.70;99.90;;;;;;5149853;27;20544;-58
2022/05/24 00:09:49;;;;;;;19.70;12.60;;;13.70;99.90;;;;;;5153144;27;20052;-57
2022/05/24 00:12:15;;;;;;;17.08;11.93;;;13.70;99.90;;;;;;5146536;27;20046;-58
2022/05/24 00:17:25;;;;;;;18.23;12.15;;;13.50;99.90;;;;;;5140208;27;20039;-57
2022/05/24 00:19:50;;;;;;;17.83;11.63;;;13.60;99.90;;;;;;5138358;27;20113;-57
2022/05/24 00:22:16;;;;;;;17.58;11.38;;;13.70;99.90;;;;;;5150537;27;20536;-57
2022/05/24 00:24:42;;;;;;;17.50;11.50;;;13.50;99.90;;;;;;5152953;27;20133;-57
2022/05/24 00:27:08;;;;;;;17.92;11.52;;;13.50;99.90;;;;;;5137734;27;20115;-57
2022/05/24 00:29:33;;;;;;;15.95;10.20;;;13.50;99.90;;;;;;5116121;27;20485;-57
2022/05/24 00:31:59;;;;;;;13.25;10.98;;;13.60;99.90;;;;;;5148886;27;20502;-57
2022/05/24 00:34:25;;;;;;;15.50;10.95;;;13.50;99.90;;;;;;5135208;27;20401;-57
2022/05/24 00:36:51;;;;;;;15.23;11.07;;;13.60;99.90;;;;;;5149756;27;20042;-57
2022/05/24 00:39:17;;;;;;;19.60;11.75;;;13.60;99.90;;;;;;5132063;27;20037;-58
2022/05/24 00:41:56;;;;;;;19.50;12.00;;;13.40;99.90;;;;;;5132056;27;20050;-57
2022/05/24 00:44:33;;;;;;;18.00;12.18;;;13.50;99.90;;;;;;5131392;27;20114;-56
2022/05/24 00:47:09;;;;;;;19.63;12.23;;;13.40;99.90;;;;;;5132051;27;20041;-56
2022/05/24 00:49:45;;;;;;;20.02;13.15;;;13.50;99.90;;;;;;5145796;27;20051;-56
2022/05/24 00:52:14;;;;;;;17.30;12.68;;;13.30;99.90;;;;;;5134283;27;20484;-56
2022/05/24 00:54:41;;;;;;;17.52;12.07;;;13.40;99.90;;;;;;5135522;27;20049;-56
2022/05/24 00:57:29;;;;;;;19.13;13.02;;;13.50;99.90;;;;;;5145017;27;20446;-56
2022/05/24 01:00:01;;;;;;;20.08;13.13;;;13.20;99.90;;;;;;5152640;27;20035;-56
2022/05/24 01:02:26;;;;;;;21.60;13.93;;;13.40;99.90;;;;;;5152367;27;20042;-56
2022/05/24 01:04:52;;;;;;;17.95;13.55;;;13.40;99.90;;;;;;5136892;27;20031;-56
2022/05/24 01:07:18;;;;;;;21.67;14.80;;;13.40;99.90;;;;;;5133744;27;20033;-55
2022/05/24 01:09:58;;;;;;;20.30;14.65;;;13.20;99.90;;;;;;5141882;27;20050;-56
2022/05/24 01:12:34;;;;;;;19.70;14.35;;;13.40;99.90;;;;;;5142696;27;20038;-56
2022/05/24 01:15:03;;;;;;;22.40;14.60;;;13.40;99.90;;;;;;5155965;27;20042;-56
2022/05/24 01:17:29;;;;;;;23.08;15.45;;;13.30;99.90;;;;;;5132846;27;20050;-56
2022/05/24 01:19:55;;;;;;;19.83;15.05;;;13.50;99.90;;;;;;5151293;27;20046;-56
2022/05/24 01:22:27;;;;;;;22.92;16.20;;;13.50;99.90;;;;;;5143077;27;20043;-56
2022/05/24 01:25:06;;;;;;;22.65;15.93;;;13.60;99.90;;;;;;5148847;27;20035;-55
2022/05/24 01:27:33;;;;;;;24.67;16.83;;;13.50;99.90;;;;;;5142597;27;20432;-56
2022/05/24 01:29:59;;;;;;;27.30;18.25;;;13.50;99.90;;;;;;5143194;27;20105;-56
2022/05/24 01:37:55;;;;;;;27.00;18.75;;;13.30;99.90;;;;;;5156234;27;20146;-56
2022/05/24 01:40:21;;;;;;;30.20;20.48;;;13.50;99.90;;;;;;5144546;27;20062;-57
2022/05/24 01:42:47;;;;;;;34.08;23.20;;;13.30;99.90;;;;;;5156034;27;20035;-56
2022/05/24 01:45:29;;;;;;;36.38;25.67;;;13.30;99.90;;;;;;5134632;27;20030;-56
2022/05/24 01:48:00;;;;;;;38.40;26.27;;;13.50;99.90;;;;;;5155852;27;20034;-57
2022/05/24 01:50:28;;;;;;;40.97;28.40;;;13.50;99.90;;;;;;5145766;27;20035;-56
2022/05/24 01:52:59;;;;;;;44.15;30.15;;;13.60;99.90;;;;;;5147680;27;20035;-57
2022/05/24 01:55:30;;;;;;;47.92;30.92;;;13.50;99.90;;;;;;5144287;27;20108;-56
2022/05/24 01:58:00;;;;;;;49.15;30.67;;;13.40;99.90;;;;;;5140991;27;20046;-56
2022/05/24 02:00:26;;;;;;;47.50;31.23;;;13.60;99.90;;;;;;5142653;27;20350;-57
2022/05/24 02:02:52;;;;;;;42.72;28.38;;;13.70;99.90;;;;;;5153080;27;20050;-57
2022/05/24 02:05:35;;;;;;;48.38;31.35;;;13.50;99.90;;;;;;5145932;27;20541;-57
2022/05/24 02:08:02;;;;;;;45.15;28.85;;;13.70;99.90;;;;;;5148883;27;20046;-57
2022/05/24 02:10:37;;;;;;;50.80;29.52;;;13.60;99.90;;;;;;5140825;27;20035;-57
2022/05/24 02:13:03;;;;;;;47.50;30.58;;;13.40;99.90;;;;;;5138775;27;20031;-57
2022/05/24 02:15:35;;;;;;;44.58;29.63;;;13.80;99.90;;;;;;5134996;27;20118;-56
2022/05/24 02:18:07;;;;;;;45.30;29.92;;;13.50;99.90;;;;;;5134715;27;20114;-57
2022/05/24 02:20:41;;;;;;;40.17;27.45;;;13.60;99.90;;;;;;5140210;27;20105;-56
2022/05/24 02:23:08;;;;;;;45.78;29.40;;;13.60;99.90;;;;;;5154019;27;20049;-56
2022/05/24 02:25:45;;;;;;;45.22;30.02;;;13.70;99.90;;;;;;5152437;27;20244;-57
2022/05/24 02:28:13;;;;;;;45.17;30.85;;;13.80;99.90;;;;;;5115899;27;20136;-56
2022/05/24 02:30:46;;;;;;;44.92;29.70;;;13.50;99.90;;;;;;5147053;27;20031;-57
2022/05/24 02:33:11;;;;;;;43.30;28.85;;;13.80;99.90;;;;;;5147702;27;20055;-57
2022/05/24 02:35:37;;;;;;;42.72;27.90;;;13.60;99.90;;;;;;5155195;27;20119;-57
2022/05/24 02:38:04;;;;;;;42.85;29.75;;;13.80;99.90;;;;;;5143357;27;20051;-58
2022/05/24 02:43:13;;;;;;;43.65;29.63;;;13.90;99.90;;;;;;5140132;27;20497;-56
2022/05/24 02:45:39;;;;;;;37.80;28.13;;;13.60;99.90;;;;;;5145731;27;20119;-57
2022/05/24 02:48:05;;;;;;;36.45;27.30;;;13.70;99.90;;;;;;5135631;27;20067;-57
2022/05/24 02:50:31;;;;;;;40.53;26.38;;;13.80;99.90;;;;;;5149915;27;20038;-56
2022/05/24 02:52:57;;;;;;;36.03;27.73;;;13.80;99.90;;;;;;5154873;27;20030;-57
2022/05/24 02:55:23;;;;;;;36.33;27.50;;;13.60;99.90;;;;;;5153826;27;20645;-57
2022/05/24 02:57:48;;;;;;;40.35;27.73;;;13.80;99.90;;;;;;5143257;27;20039;-56
2022/05/24 03:00:18;;;;;;;37.50;25.60;;;13.70;99.90;;;;;;5147238;27;20051;-57
2022/05/24 03:02:43;;;;;;;32.92;24.95;;;13.80;99.90;;;;;;5134541;27;20078;-57
2022/05/24 03:05:12;;;;;;;38.78;25.38;;;13.60;99.90;;;;;;5148647;27;20073;-57
2022/05/24 03:10:23;;;;;;;37.08;25.65;;;13.60;99.90;;;;;;5138339;27;20414;-57
2022/05/24 03:15:36;;;;;;;37.95;25.90;;;13.50;99.90;;;;;;5133233;27;20054;-57
2022/05/24 03:18:01;;;;;;;38.38;24.50;;;13.50;99.90;;;;;;5149912;27;20091;-57
2022/05/24 03:20:27;;;;;;;35.20;24.17;;;13.60;99.90;;;;;;5154427;27;20073;-57
2022/05/24 03:22:53;;;;;;;36.22;24.23;;;13.60;99.90;;;;;;5153924;27;20480;-57
2022/05/24 03:25:19;;;;;;;33.78;23.80;;;13.70;99.90;;;;;;5149912;27;20035;-57
2022/05/24 03:27:48;;;;;;;33.40;23.20;;;13.80;99.90;;;;;;5153784;27;20125;-57
2022/05/24 03:30:15;;;;;;;36.92;23.90;;;13.70;99.90;;;;;;5139183;27;20139;-57
2022/05/24 03:32:41;;;;;;;32.92;23.65;;;13.60;99.90;;;;;;5153563;27;20062;-57
2022/05/24 03:35:11;;;;;;;34.53;24.75;;;13.50;99.90;;;;;;5153884;27;20042;-57
2022/05/24 03:37:38;;;;;;;36.92;25.52;;;13.70;99.90;;;;;;5153780;27;20038;-57
2022/05/24 03:40:05;;;;;;;36.60;25.60;;;13.80;99.90;;;;;;5132578;27;20474;-57
2022/05/24 03:42:31;;;;;;;42.22;26.30;;;13.50;99.90;;;;;;5117832;27;20099;-57
2022/05/24 03:44:56;;;;;;;35.20;25.83;;;13.50;99.90;;;;;;5153529;27;20042;-57
2022/05/24 03:47:22;;;;;;;41.33;27.60;;;13.60;99.90;;;;;;5153779;27;20031;-57
2022/05/24 03:49:48;;;;;;;36.88;26.30;;;13.70;99.90;;;;;;5146426;27;20073;-57
2022/05/24 03:52:14;;;;;;;41.85;26.63;;;13.50;99.90;;;;;;5134794;27;20038;-57
2022/05/24 03:54:39;;;;;;;41.83;26.80;;;13.50;99.90;;;;;;5120891;27;20043;-57
2022/05/24 03:59:50;;;;;;;43.30;25.60;;;13.30;99.90;;;;;;5152880;27;20161;-57
2022/05/24 04:02:16;;;;;;;37.90;23.48;;;13.30;99.90;;;;;;5139763;27;20125;-58
2022/05/24 04:04:42;;;;;;;44.55;26.42;;;13.20;99.90;;;;;;5149037;27;20138;-57
2022/05/24 04:07:09;;;;;;;46.03;25.58;;;13.30;99.90;;;;;;5143477;27;20042;-57
2022/05/24 04:09:35;;;;;;;45.30;27.50;;;13.40;99.90;;;;;;5135252;27;20050;-56
2022/05/24 04:12:02;;;;;;;45.55;26.67;;;13.10;99.90;;;;;;5152987;27;20117;-56
2022/05/24 04:14:32;;;;;;;40.40;25.52;;;13.30;99.90;;;;;;5149169;27;20084;-57
2022/05/24 04:16:57;;;;;;;40.67;24.98;;;13.10;99.90;;;;;;5132656;27;20498;-57
2022/05/24 04:19:23;;;;;;;40.63;25.98;;;13.20;99.90;;;;;;5132375;27;20130;-58
2022/05/24 04:21:49;;;;;;;40.70;25.55;;;13.20;99.90;;;;;;5148596;27;20034;-57
2022/05/24 04:24:15;;;;;;;38.83;23.63;;;13.10;99.90;;;;;;5152887;27;20084;-58
2022/05/24 04:26:41;;;;;;;33.58;23.25;;;13.30;99.90;;;;;;5152439;27;20042;-57
2022/05/24 04:29:07;;;;;;;34.90;22.73;;;13.20;99.90;;;;;;5139972;27;20037;-57
2022/05/24 04:31:33;;;;;;;35.88;22.05;;;13.00;99.90;;;;;;5152840;27;20031;-57
2022/05/24 04:33:59;;;;;;;36.03;23.15;;;12.90;99.90;;;;;;5135440;27;20516;-57
2022/05/24 04:36:24;;;;;;;31.10;21.70;;;13.10;99.90;;;;;;5132133;27;20078;-57
2022/05/24 04:38:50;;;;;;;34.60;21.98;;;13.00;99.90;;;;;;5132115;27;20482;-56
2022/05/24 04:44:00;;;;;;;31.30;18.88;;;13.10;99.90;;;;;;5132070;27;20066;-57
2022/05/24 04:47:06;;;;;;;28.65;19.60;;;12.80;99.90;;;;;;5145713;27;20489;-57
2022/05/24 04:49:11;;;;;;;29.58;18.85;;;13.10;99.90;;;;;;5138077;27;20056;-57
2022/05/24 04:51:38;;;;;;;33.00;19.13;;;12.90;99.90;;;;;;5133223;27;20520;-57
2022/05/24 04:54:04;;;;;;;31.77;19.30;;;12.90;99.90;;;;;;5132112;27;20326;-57
2022/05/24 04:56:29;;;;;;;37.45;19.88;;;12.70;99.90;;;;;;5131620;27;20126;-57
2022/05/24 04:58:55;;;;;;;30.65;17.55;;;12.80;99.90;;;;;;5138323;27;20039;-57
2022/05/24 05:01:21;;;;;;;30.05;18.50;;;12.70;99.90;;;;;;5152509;27;20031;-57
2022/05/24 05:03:46;;;;;;;32.50;19.08;;;12.70;99.90;;;;;;5146784;27;20036;-57
2022/05/24 05:06:13;;;;;;;31.23;19.10;;;12.90;99.90;;;;;;5140781;27;20031;-57
2022/05/24 05:08:39;;;;;;;31.42;19.02;;;13.00;99.90;;;;;;5149729;27;20043;-57
2022/05/24 05:11:05;;;;;;;29.77;16.58;;;12.80;99.90;;;;;;5141042;27;20109;-57
2022/05/24 05:13:30;;;;;;;31.83;18.50;;;12.90;99.90;;;;;;5129924;27;20046;-58
2022/05/24 05:15:56;;;;;;;28.02;18.60;;;12.80;99.90;;;;;;5150127;27;20038;-58
2022/05/24 05:18:24;;;;;;;27.67;16.73;;;13.00;99.90;;;;;;5131801;27;20039;-57
2022/05/24 05:20:50;;;;;;;30.88;17.55;;;13.00;99.90;;;;;;5145775;27;20066;-58
2022/05/24 05:23:17;;;;;;;26.02;16.85;;;13.00;99.90;;;;;;5145012;27;20462;-57
2022/05/24 05:25:49;;;;;;;27.95;16.80;;;13.10;99.90;;;;;;5140431;27;20035;-57
2022/05/24 05:28:16;;;;;;;30.55;16.50;;;12.90;99.90;;;;;;5133301;27;20409;-57
2022/05/24 05:33:26;;;;;;;;;;;13.10;99.90;;;;;;5143871;27;20058;-58
2022/05/24 05:35:52;;;;;;;32.33;17.13;;;13.20;99.90;;;;;;5148890;27;19916;-58
2022/05/24 05:38:18;;;;;;;28.25;16.30;;;13.20;99.90;;;;;;5130641;27;20038;-58
2022/05/24 05:40:45;;;;;;;23.50;15.93;;;13.20;99.90;;;;;;5143509;27;20046;-58
2022/05/24 05:43:11;;;;;;;26.48;16.45;;;13.20;99.90;;;;;;5136053;27;20027;-58
2022/05/24 05:45:37;;;;;;;26.20;16.20;;;13.20;99.90;;;;;;5140669;27;20052;-58
2022/05/24 05:48:03;;;;;;;27.40;15.75;;;13.40;99.90;;;;;;5143131;27;20035;-58
2022/05/24 05:50:29;;;;;;;23.77;15.63;;;13.40;99.90;;;;;;5138354;27;20037;-58
2022/05/24 05:52:54;;;;;;;25.58;17.15;;;13.40;99.90;;;;;;5152119;27;20030;-58
2022/05/24 05:55:21;;;;;;;28.13;17.88;;;13.30;99.90;;;;;;5138863;27;20076;-58
2022/05/24 05:57:47;;;;;;;31.02;17.08;;;13.30;99.90;;;;;;5150159;27;20038;-58
2022/05/24 06:00:14;;;;;;;30.40;17.13;;;13.40;99.90;;;;;;5156048;27;20054;-58
2022/05/24 06:02:39;;;;;;;32.50;17.40;;;13.40;99.90;;;;;;5130036;27;20047;-58
2022/05/24 06:05:06;;;;;;;27.20;16.77;;;13.30;99.90;;;;;;5129290;27;20035;-58
2022/05/24 06:07:32;;;;;;;28.00;17.85;;;13.40;99.90;;;;;;5153905;27;20058;-58
2022/05/24 06:09:58;;;;;;;25.70;17.23;;;13.30;99.90;;;;;;5126407;27;20505;-58
2022/05/24 06:12:25;;;;;;;23.73;15.85;;;13.40;99.90;;;;;;5155723;27;20079;-58
2022/05/24 06:14:50;;;;;;;33.05;16.88;;;13.30;99.90;;;;;;5136511;27;20062;-58
2022/05/24 06:17:17;;;;;;;23.63;16.05;;;13.40;99.90;;;;;;5139126;27;20431;-58
2022/05/24 06:19:44;;;;;;;23.15;15.88;;;13.40;99.90;;;;;;5146687;27;20450;-58
2022/05/24 06:22:10;;;;;;;26.70;16.02;;;13.40;99.90;;;;;;5144150;27;20035;-58
2022/05/24 06:24:37;;;;;;;26.83;16.02;;;13.40;99.90;;;;;;5152548;27;20042;-58
2022/05/24 06:27:03;;;;;;;27.67;15.63;;;13.40;99.90;;;;;;5125316;27;20030;-58
2022/05/24 06:29:33;;;;;;;24.80;15.40;;;13.50;99.90;;;;;;5125461;27;20057;-58
2022/05/24 06:32:01;;;;;;;24.95;14.85;;;13.50;99.90;;;;;;5153398;27;20051;-58
2022/05/24 06:34:29;;;;;;;24.58;15.00;;;13.50;99.90;;;;;;5150540;27;20039;-57
2022/05/24 06:36:56;;;;;;;26.17;16.08;;;13.50;99.90;;;;;;5134278;27;20057;-58
2022/05/24 06:39:22;;;;;;;23.83;15.32;;;13.70;99.90;;;;;;5150096;27;20026;-58
2022/05/24 06:41:47;;;;;;;25.58;14.45;;;13.60;99.90;;;;;;5134140;27;20042;-58
2022/05/24 06:44:14;;;;;;;22.13;14.35;;;13.60;99.90;;;;;;5133956;27;20147;-57
2022/05/24 06:46:40;;;;;;;24.45;15.05;;;13.70;99.90;;;;;;5134157;27;20107;-58
2022/05/24 06:49:06;;;;;;;25.55;15.35;;;13.50;99.90;;;;;;5142845;27;20031;-58
2022/05/24 06:51:31;;;;;;;22.98;15.20;;;13.50;99.90;;;;;;5138873;27;20150;-58
2022/05/24 06:53:57;;;;;;;27.30;15.50;;;13.60;99.90;;;;;;5154736;27;20516;-58
2022/05/24 06:56:23;;;;;;;24.45;15.60;;;13.60;99.90;;;;;;5154294;27;20030;-58
2022/05/24 06:58:48;;;;;;;24.85;14.73;;;13.70;99.90;;;;;;5154467;27;20075;-58
2022/05/24 07:03:58;;;;;;;;;;;13.70;99.90;;;;;;5132996;27;20371;-58
2022/05/24 07:06:25;;;;;;;26.10;16.50;;;13.70;99.90;;;;;;5136196;27;19919;-58
2022/05/24 07:08:51;;;;;;;24.13;15.65;;;13.70;99.90;;;;;;5145498;27;20088;-57
2022/05/24 07:11:19;;;;;;;23.20;14.65;;;13.80;99.90;;;;;;5134599;27;20035;-58
2022/05/24 07:13:45;;;;;;;26.13;14.80;;;14.00;99.90;;;;;;5129511;27;20039;-58
2022/05/24 07:16:11;;;;;;;22.70;15.55;;;14.00;99.90;;;;;;5137622;27;20080;-58
2022/05/24 07:18:37;;;;;;;22.48;14.60;;;13.90;99.90;;;;;;5138541;27;20101;-57
2022/05/24 07:21:04;;;;;;;25.23;15.18;;;13.90;99.90;;;;;;5112641;27;20042;-57
2022/05/24 07:23:32;;;;;;;25.73;14.98;;;13.90;99.90;;;;;;5132953;27;20051;-58
2022/05/24 07:26:09;;;;;;;24.15;15.40;;;14.00;99.90;;;;;;5139030;27;20063;-58
2022/05/24 07:28:36;;;;;;;24.17;15.10;;;14.00;99.90;;;;;;5132386;27;20117;-58
2022/05/24 07:31:02;;;;;;;22.05;15.65;;;14.00;99.90;;;;;;5130717;27;20058;-58
2022/05/24 07:33:27;;;;;;;20.08;14.80;;;14.50;99.90;;;;;;5126968;27;20051;-57
2022/05/24 07:35:54;;;;;;;27.90;15.35;;;14.10;99.90;;;;;;5107353;27;20063;-58
2022/05/24 07:38:19;;;;;;;24.08;14.65;;;14.10;99.90;;;;;;5126399;27;20035;-57
2022/05/24 07:46:15;;;;;;;17.52;12.55;;;14.40;99.90;;;;;;5122746;27;19918;-58
2022/05/24 07:48:41;;;;;;;21.17;12.40;;;14.70;99.90;;;;;;5123580;27;20043;-58
2022/05/24 07:51:07;;;;;;;18.38;11.85;;;14.80;99.90;;;;;;5123685;27;20035;-57
2022/05/24 07:53:33;;;;;;;12.45;8.50;;;14.80;99.90;;;;;;5123405;27;20096;-58
2022/05/24 07:56:00;;;;;;;17.10;9.32;;;14.70;99.90;;;;;;5122668;27;20465;-58
2022/05/24 07:58:26;;;;;;;14.38;8.25;;;14.70;99.90;;;;;;5120269;27;20114;-57
2022/05/24 08:00:55;;;;;;;14.35;8.02;;;14.50;99.90;;;;;;5121578;27;20088;-58
2022/05/24 08:03:21;;;;;;;12.13;8.07;;;14.60;99.90;;;;;;5116655;27;20462;-58
2022/05/24 08:05:47;;;;;;;11.70;6.80;;;14.80;99.90;;;;;;5120606;27;20050;-58
2022/05/24 08:08:14;;;;;;;11.32;6.68;;;14.70;99.90;;;;;;5103732;27;20034;-57
2022/05/24 08:10:41;;;;;;;12.75;5.80;;;14.80;99.90;;;;;;5120918;27;20039;-58
2022/05/24 08:13:08;;;;;;;12.82;6.30;;;15.00;99.90;;;;;;5122533;27;20554;-58
2022/05/24 08:15:35;;;;;;;11.45;5.72;;;15.00;99.90;;;;;;5121841;27;20051;-58
2022/05/24 08:18:00;;;;;;;10.15;4.93;;;15.10;99.90;;;;;;5122356;27;20035;-58
2022/05/24 08:20:27;;;;;;;11.02;4.22;;;15.00;99.90;;;;;;5123221;27;20033;-58
2022/05/24 08:22:53;;;;;;;12.27;4.60;;;15.20;99.90;;;;;;5123816;27;20051;-57
2022/05/24 08:25:19;;;;;;;10.70;5.03;;;15.10;99.90;;;;;;5124322;27;20367;-57
2022/05/24 08:27:44;;;;;;;10.80;4.97;;;15.20;99.90;;;;;;5123410;27;20047;-57
2022/05/24 08:30:13;;;;;;;9.55;5.60;;;15.20;99.90;;;;;;5122202;27;20138;-57
2022/05/24 08:32:39;;;;;;;8.45;5.22;;;15.30;99.90;;;;;;5122685;27;20078;-57
2022/05/24 08:35:07;;;;;;;9.45;5.43;;;15.40;99.90;;;;;;5123455;27;20039;-57
2022/05/24 08:37:33;;;;;;;10.23;6.18;;;15.30;99.90;;;;;;5122374;27;20130;-58
2022/05/24 08:39:59;;;;;;;13.90;6.15;;;15.50;99.90;;;;;;5123415;27;20492;-57
2022/05/24 08:42:36;;;;;;;12.23;6.20;;;15.30;99.90;;;;;;5118076;27;20043;-58
2022/05/24 08:48:22;;;;;;;12.25;6.15;;;15.30;99.90;;;;;;5119949;27;20081;-57
2022/05/24 08:50:51;;;;;;;9.35;5.55;;;15.10;99.90;;;;;;5119565;27;20035;-57
2022/05/24 08:53:33;;;;;;;7.60;4.75;;;15.00;99.90;;;;;;5123864;27;20035;-58
2022/05/24 08:56:02;;;;;;;9.73;5.38;;;14.80;99.90;;;;;;5122908;27;20062;-57
2022/05/24 08:58:35;;;;;;;10.43;5.90;;;15.00;99.90;;;;;;5121661;27;20049;-57
2022/05/24 09:01:02;;;;;;;10.00;6.00;;;15.10;99.90;;;;;;5121552;27;20125;-58
2022/05/24 09:03:28;;;;;;;11.00;6.13;;;15.20;99.90;;;;;;5122256;27;20035;-58
2022/05/24 09:06:13;;;;;;;9.30;6.00;;;15.10;99.90;;;;;;5121842;27;20063;-57
2022/05/24 09:08:52;;;;;;;8.25;5.88;;;15.30;99.90;;;;;;5120778;27;20039;-58
2022/05/24 09:11:27;;;;;;;15.90;6.32;;;15.50;99.90;;;;;;5122149;27;20474;-57
2022/05/24 09:14:04;;;;;;;9.57;5.68;;;15.70;99.90;;;;;;5122220;27;20413;-57
2022/05/24 09:17:12;;;;;;;9.75;5.88;;;15.90;99.90;;;;;;5122493;27;20031;-57
2022/05/24 09:19:42;;;;;;;10.32;5.97;;;15.70;99.90;;;;;;5084320;27;20055;-56
2022/05/24 09:22:11;;;;;;;8.10;4.75;;;15.80;99.90;;;;;;5121486;27;20114;-57
2022/05/24 09:24:47;;;;;;;9.02;4.88;;;15.60;99.90;;;;;;5105458;27;20047;-56
2022/05/24 09:27:16;;;;;;;6.03;3.58;;;15.50;99.90;;;;;;5105653;28;21396;-56
2022/05/24 09:29:52;;;;;;;5.95;2.63;;;15.20;99.90;;;;;;5122222;27;20045;-58
2022/05/24 09:32:18;;;;;;;5.15;1.80;;;15.20;99.90;;;;;;5124506;27;20063;-57
2022/05/24 09:34:44;;;;;;;3.80;1.67;;;15.30;99.90;;;;;;5126228;27;20066;-57
2022/05/24 09:37:22;;;;;;;3.00;1.35;;;15.50;99.90;;;;;;5126979;27;20019;-57
2022/05/24 09:40:07;;;;;;;5.40;1.70;;;15.50;99.90;;;;;;5127191;27;20160;-57
2022/05/24 09:42:36;;;;;;;3.50;1.60;;;15.60;99.90;;;;;;5127330;27;20069;-57
2022/05/24 09:45:09;;;;;;;4.13;1.90;;;15.70;99.90;;;;;;5126639;27;21467;-57
2022/05/24 09:47:41;;;;;;;6.55;1.98;;;16.10;99.90;;;;;;5126389;27;20076;-57
2022/05/24 09:50:32;;;;;;;5.97;2.20;;;15.80;99.90;;;;;;5125055;27;20039;-57
2022/05/24 09:53:12;;;;;;;4.60;2.30;;;16.00;99.90;;;;;;5126780;27;20434;-57
2022/05/24 09:56:03;;;;;;;5.80;2.00;;;16.20;99.90;;;;;;5125965;27;20035;-57
2022/05/24 09:58:50;;;;;;;5.10;2.47;;;16.30;99.90;;;;;;5125993;27;20118;-57
2022/05/24 10:01:31;;;;;;;7.78;3.17;;;16.50;99.90;;;;;;5127207;27;20028;-57
2022/05/24 10:04:18;;;;;;;11.10;2.03;;;16.00;99.90;;;;;;5131970;27;20046;-57
2022/05/24 10:06:52;;;;;;;6.35;0.93;;;15.30;99.90;;;;;;5123948;27;20442;-57
2022/05/24 10:09:40;;;;;;;6.13;1.00;;;14.60;99.90;;;;;;5126670;27;20035;-57
2022/05/24 10:12:31;;;;;;;3.05;0.70;;;14.30;99.90;;;;;;5127005;27;20096;-57
2022/05/24 10:15:26;;;;;;;3.50;0.63;;;13.80;99.90;;;;;;5126253;27;20035;-57
2022/05/24 10:18:25;;;;;;;4.90;0.77;;;13.50;99.90;;;;;;5118195;27;20042;-57
2022/05/24 10:21:21;;;;;;;2.40;0.73;;;13.30;99.90;;;;;;5126967;27;20039;-57
2022/05/24 10:23:56;;;;;;;6.97;1.25;;;13.10;99.90;;;;;;5097732;27;20095;-57
2022/05/24 10:26:30;;;;;;;4.30;0.90;;;13.00;99.90;;;;;;5125496;27;20602;-57
2022/05/24 10:29:10;;;;;;;5.53;1.27;;;12.90;99.90;;;;;;5124280;27;20035;-57
2022/05/24 10:31:55;;;;;;;3.95;1.40;;;12.90;99.90;;;;;;5122220;27;20100;-57
2022/05/24 10:40:47;;;;;;;6.55;2.20;;;12.80;99.90;;;;;;5125601;27;20179;-58
2022/05/24 10:43:31;;;;;;;6.75;3.13;;;12.80;99.90;;;;;;5125074;27;20374;-58
2022/05/24 10:46:02;;;;;;;5.97;2.95;;;12.90;99.90;;;;;;5126781;27;20086;-58
2022/05/24 10:48:43;;;;;;;5.78;3.20;;;13.00;99.90;;;;;;5108168;27;20142;-57
2022/05/24 10:51:28;;;;;;;7.15;3.60;;;13.20;99.90;;;;;;5126903;27;20023;-58
2022/05/24 10:54:01;;;;;;;6.55;3.67;;;13.40;99.90;;;;;;5125220;27;20124;-57
2022/05/24 10:56:27;;;;;;;9.38;4.32;;;13.60;99.90;;;;;;5125060;27;20043;-57
2022/05/24 10:59:03;;;;;;;6.75;4.38;;;13.80;99.90;;;;;;5122451;27;20510;-57
2022/05/24 11:01:38;;;;;;;9.82;4.20;;;13.70;99.90;;;;;;5123509;27;20119;-57
2022/05/24 11:04:22;;;;;;;8.00;4.18;;;13.60;99.90;;;;;;5123034;27;20039;-57
2022/05/24 11:06:58;;;;;;;13.60;3.80;;;13.60;99.90;;;;;;5122204;27;20486;-58
2022/05/24 11:09:26;;;;;;;10.65;4.47;;;13.30;99.90;;;;;;5106068;27;20046;-58
2022/05/24 11:12:06;;;;;;;4.10;2.15;;;13.20;99.90;;;;;;5123685;27;20031;-57
2022/05/24 11:14:45;;;;;;;4.97;1.58;;;13.00;99.90;;;;;;5122837;27;20083;-59
2022/05/24 11:17:12;;;;;;;5.82;1.40;;;13.10;99.90;;;;;;5123002;27;20043;-59
2022/05/24 11:19:45;;;;;;;3.15;1.00;;;13.10;99.90;;;;;;5122430;27;20032;-59
2022/05/24 11:22:28;;;;;;;3.58;0.90;;;12.90;99.90;;;;;;5124270;27;20031;-59
2022/05/24 11:24:57;;;;;;;2.97;0.90;;;12.80;99.90;;;;;;5120677;27;20042;-59
2022/05/24 11:27:58;;;;;;;2.05;0.90;;;12.90;99.90;;;;;;5120624;27;20122;-59
2022/05/24 11:30:30;;;;;;;2.50;1.10;;;13.00;99.90;;;;;;5119821;27;20035;-59
2022/05/24 11:33:09;;;;;;;2.63;1.02;;;13.30;99.90;;;;;;5117733;27;20580;-59
2022/05/24 11:35:52;;;;;;;2.50;1.08;;;13.20;99.90;;;;;;5119223;27;20114;-59
2022/05/24 11:38:35;;;;;;;3.30;1.20;;;13.40;99.90;;;;;;5121143;27;20377;-59
2022/05/24 11:41:12;;;;;;;6.13;1.30;;;13.80;99.90;;;;;;5104648;27;20034;-59
2022/05/24 11:43:43;;;;;;;2.60;1.27;;;14.20;99.90;;;;;;5122928;27;20055;-59
2022/05/24 11:46:34;;;;;;;2.88;1.58;;;14.30;99.90;;;;;;5122906;27;20470;-59
2022/05/24 11:49:21;;;;;;;3.13;1.17;;;14.60;99.90;;;;;;5120741;27;20046;-60
2022/05/24 11:51:48;;;;;;;2.08;0.93;;;14.80;99.90;;;;;;5081969;27;20039;-60
2022/05/24 11:54:57;;;;;;;2.45;0.90;;;15.30;99.90;;;;;;5122033;27;20027;-59
2022/05/24 11:57:37;;;;;;;3.47;0.93;;;15.60;99.90;;;;;;5121704;27;20077;-59
2022/05/24 12:00:04;;;;;;;2.45;1.00;;;15.90;99.90;;;;;;5119645;27;20035;-59
2022/05/24 12:02:33;;;;;;;2.72;0.80;;;16.00;99.90;;;;;;5120905;27;20501;-59
2022/05/24 12:08:05;;;;;;;2.70;0.80;;;15.90;99.90;;;;;;5123869;27;20566;-60
2022/05/24 12:10:46;;;;;;;2.83;0.73;;;15.90;99.90;;;;;;5124441;27;20043;-60
2022/05/24 12:13:31;;;;;;;4.20;1.10;;;16.20;99.90;;;;;;5131141;27;20066;-60
2022/05/24 12:16:03;;;;;;;3.92;1.15;;;16.30;99.90;;;;;;5130643;27;20723;-59
2022/05/24 12:18:57;;;;;;;1.90;0.70;;;16.30;99.90;;;;;;5131435;27;20414;-59
2022/05/24 12:21:58;;;;;;;3.55;0.90;;;16.50;99.90;;;;;;5132984;27;20119;-59
2022/05/24 12:24:29;;;;;;;3.17;0.95;;;17.00;99.90;;;;;;5131401;27;20085;-59
2022/05/24 12:27:15;;;;;;;5.07;1.08;;;16.80;99.90;;;;;;5111955;27;20074;-59
2022/05/24 12:29:43;;;;;;;4.05;1.20;;;16.70;99.90;;;;;;5131557;27;20180;-59
2022/05/24 12:32:09;;;;;;;5.07;1.58;;;17.00;99.90;;;;;;5132137;27;20167;-59
2022/05/24 12:34:35;;;;;;;6.25;1.75;;;17.10;99.90;;;;;;5139244;27;20125;-59
2022/05/24 12:37:15;;;;;;;6.20;1.25;;;17.20;99.90;;;;;;5152710;27;20118;-59
2022/05/24 12:39:41;;;;;;;3.20;1.17;;;17.50;99.90;;;;;;5136724;27;20088;-59
2022/05/24 12:42:13;;;;;;;2.63;1.60;;;17.30;99.90;;;;;;5132011;27;20035;-58
2022/05/24 12:44:48;;;;;;;5.28;1.80;;;17.60;99.90;;;;;;5133007;27;20049;-59
2022/05/24 12:47:18;;;;;;;4.20;1.85;;;18.20;99.90;;;;;;5133048;27;20027;-59
2022/05/24 12:49:50;;;;;;;2.33;1.20;;;18.50;99.90;;;;;;5152480;27;20026;-58
2022/05/24 12:52:22;;;;;;;2.72;0.80;;;18.70;99.90;;;;;;5152492;27;20117;-59
2022/05/24 12:55:00;;;;;;;3.67;0.70;;;18.80;99.90;;;;;;5139707;27;20039;-58
2022/05/24 12:57:35;;;;;;;2.30;0.70;;;19.10;99.90;;;;;;5140985;27;20038;-56
2022/05/24 13:00:10;;;;;;;2.47;0.70;;;18.80;99.90;;;;;;5132068;27;20069;-56
2022/05/24 13:02:51;;;;;;;1.77;0.70;;;18.80;99.90;;;;;;5100022;28;20047;-57
2022/05/24 13:05:21;;;;;;;3.03;0.95;;;18.50;99.90;;;;;;5131566;28;20031;-56
2022/05/24 13:07:57;;;;;;;7.28;2.05;;;18.10;99.90;;;;;;5134208;27;20039;-57
2022/05/24 13:10:29;;;;;;;5.03;1.17;;;18.20;99.90;;;;;;5135905;27;20036;-57
2022/05/24 13:13:01;;;;;;;4.90;1.02;;;18.90;99.90;;;;;;5136087;27;20071;-57
2022/05/24 13:15:58;;;;;;;4.15;0.90;;;18.90;99.90;;;;;;5147450;27;20088;-57
2022/05/24 13:18:34;;;;;;;2.33;0.70;;;18.50;99.90;;;;;;5138014;27;20045;-57
2022/05/24 13:21:06;;;;;;;4.97;1.08;;;18.30;99.90;;;;;;5139549;27;20039;-56
2022/05/24 13:23:36;;;;;;;2.55;0.80;;;18.30;99.90;;;;;;5133957;27;20054;-57
2022/05/24 13:26:01;;;;;;;5.57;1.27;;;18.10;99.90;;;;;;5135403;27;20031;-57
2022/05/24 13:29:24;;;;;;;4.15;0.98;;;18.50;99.90;;;;;;5135541;27;20123;-57
2022/05/24 13:34:35;;;;;;;5.25;0.90;;;18.80;99.90;;;;;;5135250;27;20050;-57
2022/05/24 13:37:08;;;;;;;3.25;0.98;;;18.90;99.90;;;;;;5136848;27;20053;-57
2022/05/24 13:39:43;;;;;;;4.90;0.90;;;19.30;99.90;;;;;;5134430;27;20537;-57
2022/05/24 13:42:17;;;;;;;4.80;1.08;;;19.10;99.90;;;;;;5135377;27;20264;-57